This is the latest recevied weather packets stored in our database for station/object N2MLB-WX. If no packets are shown the sender has not sent any weather packets the latest 10 day(s).
| Time | Temp. | Humidity | Pressure | Rain* | Wind** | Luminosity | Snow |
|---|---|---|---|---|---|---|---|
| 1777870640 | 11.11° C | 51% | 1005 hPa | 0 mm | - | 0 W/m² | - |
| 1777870340 | 11.11° C | 51% | 1005 hPa | 0 mm | - | 0 W/m² | - |
| 1777870040 | 10.56° C | 54% | 1005 hPa | 0 mm | - | 0 W/m² | - |
| 1777869440 | 11.11° C | 53% | 1005 hPa | 0 mm | - | 0 W/m² | - |
| 1777869139 | 10.56° C | 54% | 1005 hPa | 0 mm | - | 0 W/m² | - |
| 1777868839 | 11.11° C | 52% | 1005 hPa | 0 mm | - | 0 W/m² | - |
| 1777868541 | 11.11° C | 52% | 1005 hPa | 0 mm | - | 0 W/m² | - |
| 1777868240 | 11.11° C | 51% | 1005 hPa | 0 mm | - | 0 W/m² | - |
| 1777867940 | 11.11° C | 52% | 1005 hPa | 0 mm | - | 0 W/m² | - |
| 1777867640 | 11.11° C | 51% | 1005 hPa | 0 mm | - | 0 W/m² | - |
| 1777867339 | 11.11° C | 52% | 1005 hPa | 0 mm | - | 0 W/m² | - |
| 1777867040 | 11.67° C | 50% | 1005 hPa | 0 mm | - | 0 W/m² | - |
| 1777866739 | 11.67° C | 50% | 1005 hPa | 0 mm | - | 0 W/m² | - |
| 1777866441 | 11.67° C | 50% | 1005 hPa | 0 mm | - | 0 W/m² | - |
| 1777866139 | 12.22° C | 48% | 1005 hPa | 0 mm | - | 0 W/m² | - |
| 1777865839 | 12.22° C | 48% | 1005 hPa | 0 mm | - | 0 W/m² | - |
| 1777865542 | 12.22° C | 48% | 1005 hPa | 0 mm | - | 0 W/m² | - |
| 1777865239 | 12.22° C | 49% | 1005 hPa | 0 mm | - | 0 W/m² | - |
| 1777864941 | 11.67° C | 53% | 1005 hPa | 0 mm | - | 0 W/m² | - |
| 1777864639 | 11.67° C | 53% | 1005 hPa | 0 mm | - | 0 W/m² | - |
| 1777864343 | 11.67° C | 53% | 1005 hPa | 0 mm | - | 0 W/m² | - |
| 1777864041 | 11.67° C | 51% | 1005 hPa | 0 mm | - | 0 W/m² | - |
| 1777863739 | 11.67° C | 52% | 1005 hPa | 0 mm | - | 0 W/m² | - |
| 1777863440 | 11.67° C | 53% | 1005 hPa | 0 mm | - | 0 W/m² | - |
| 1777863140 | 11.67° C | 53% | 1005 hPa | 0 mm | - | 0 W/m² | - |
* Rain latest hour (hover to see other rain measurements)
** Current wind speed in m/s (hover to see current wind gust speed)